Terminal Aerodrome Forecast
Issued by NWS Corpus Christi, TX

Home | Current Version | Previous Version | Text Only | Print | Product List | Glossary On
Versions: 1 2 3 4 5 6 7 8 9 10 11 12 13 14
833
FTUS44 KCRP 241130
TAFVCT
TAF
KVCT 241130Z 2412/2512 17006KT P6SM SKC WS010/18045KT
     FM241700 18020G30KT P6SM SKC
     FM250400 18015KT P6SM BKN025
     FM250900 21008KT 6SM BR VCSH BKN015=

USA.gov is the U.S. government's official web portal to all federal, state and local government web resources and services.